Time;durP1;ratioP1;P1;durP2;ratioP2;P2;SDS_P1;SDS_P2;PMS_P1;PMS_P2;Temp;Humidity;BMP_temperature;BMP_pressure;BME280_temperature;BME280_humidity;BME280_pressure;Samples;Min_cycle;Max_cycle;Signal;HPM_P1;HPM_P2
2024/02/10 00:01:56;;;;;;;26.53;15.43;;;4.30;99.90;;;;;;4995306;28;20216;-57
2024/02/10 00:04:23;;;;;;;29.53;15.33;;;4.30;99.90;;;;;;5016063;28;20220;-58
2024/02/10 00:06:50;;;;;;;29.47;15.63;;;4.30;99.90;;;;;;5015177;28;20196;-56
2024/02/10 00:09:17;;;;;;;28.17;14.33;;;4.30;99.90;;;;;;5011485;28;20426;-58
2024/02/10 00:11:45;;;;;;;24.20;13.77;;;4.30;99.90;;;;;;5021971;28;20246;-57
2024/02/10 00:14:13;;;;;;;27.13;14.40;;;4.40;99.90;;;;;;5019237;28;20210;-57
2024/02/10 00:16:40;;;;;;;28.90;14.93;;;4.40;99.90;;;;;;4995022;28;20234;-56
2024/02/10 00:19:09;;;;;;;26.37;14.07;;;4.30;99.90;;;;;;5018273;28;20200;-59
2024/02/10 00:21:35;;;;;;;33.30;14.70;;;4.30;99.90;;;;;;5009436;28;20219;-58
2024/02/10 00:24:02;;;;;;;33.73;15.07;;;4.40;99.90;;;;;;5014759;28;20238;-54
2024/02/10 00:26:29;;;;;;;25.00;14.10;;;4.40;99.90;;;;;;5017986;28;20196;-56
2024/02/10 00:28:57;;;;;;;26.47;13.70;;;4.40;99.90;;;;;;5019162;28;20257;-57
2024/02/10 00:31:24;;;;;;;26.33;13.70;;;4.40;99.90;;;;;;5020569;28;20434;-57
2024/02/10 00:33:51;;;;;;;27.73;14.07;;;4.40;99.90;;;;;;4992744;28;20227;-57
2024/02/10 00:36:18;;;;;;;24.07;12.63;;;4.40;99.90;;;;;;5022987;28;20227;-56
2024/02/10 00:38:45;;;;;;;29.47;15.37;;;4.40;99.90;;;;;;5012670;28;20196;-57
2024/02/10 00:41:13;;;;;;;26.27;13.60;;;4.40;99.90;;;;;;5021134;28;20228;-57
2024/02/10 00:43:43;;;;;;;27.80;13.77;;;4.40;99.90;;;;;;5021288;28;20230;-57
2024/02/10 00:46:12;;;;;;;26.77;14.00;;;4.50;99.90;;;;;;5021248;28;20194;-58
2024/02/10 00:48:39;;;;;;;26.63;13.40;;;4.50;99.90;;;;;;4995831;28;20583;-54
2024/02/10 00:51:06;;;;;;;28.30;13.40;;;4.40;99.90;;;;;;5020644;28;20191;-57
2024/02/10 00:53:36;;;;;;;30.67;13.83;;;4.50;99.90;;;;;;5015451;28;20235;-57
2024/02/10 00:56:03;;;;;;;22.57;12.87;;;4.50;99.90;;;;;;5019661;28;20208;-57
2024/02/10 00:58:30;;;;;;;25.00;12.73;;;4.50;99.90;;;;;;5022042;28;20281;-57
2024/02/10 01:00:57;;;;;;;25.87;13.80;;;4.50;99.90;;;;;;5019019;28;20970;-56
2024/02/10 01:03:25;;;;;;;31.07;14.33;;;4.40;99.90;;;;;;5023145;28;20646;-58
2024/02/10 01:05:52;;;;;;;27.20;14.07;;;4.50;99.90;;;;;;4992763;28;20203;-57
2024/02/10 01:08:19;;;;;;;26.77;14.37;;;4.40;99.90;;;;;;5014552;28;20261;-56
2024/02/10 01:10:46;;;;;;;27.87;13.87;;;4.50;99.90;;;;;;5019773;28;20200;-56
2024/02/10 01:13:13;;;;;;;25.30;14.33;;;4.40;99.90;;;;;;5019266;28;20220;-58
2024/02/10 01:15:39;;;;;;;25.70;13.37;;;4.40;99.90;;;;;;5020326;28;20215;-57
2024/02/10 01:18:07;;;;;;;33.03;14.70;;;4.50;99.90;;;;;;5018947;28;20211;-55
2024/02/10 01:20:35;;;;;;;26.57;14.17;;;4.40;99.90;;;;;;4996291;28;20933;-56
2024/02/10 01:23:02;;;;;;;26.10;14.50;;;4.40;99.90;;;;;;5014943;28;20219;-56
2024/02/10 01:25:30;;;;;;;29.40;13.60;;;4.50;99.90;;;;;;5013647;28;20207;-58
2024/02/10 01:27:58;;;;;;;30.33;13.83;;;4.50;99.90;;;;;;5013866;28;20924;-58
2024/02/10 01:30:26;;;;;;;27.77;13.37;;;4.50;99.90;;;;;;5017036;28;20232;-58
2024/02/10 01:32:54;;;;;;;22.60;12.97;;;4.50;99.90;;;;;;5015270;28;20232;-58
2024/02/10 01:35:21;;;;;;;27.53;14.27;;;4.50;99.90;;;;;;4992679;28;20294;-58
2024/02/10 01:37:50;;;;;;;30.37;14.43;;;4.50;99.90;;;;;;5017344;28;20199;-56
2024/02/10 01:40:17;;;;;;;24.03;12.67;;;4.50;99.90;;;;;;5012911;28;20208;-58
2024/02/10 01:42:44;;;;;;;25.27;13.90;;;4.50;99.90;;;;;;5019421;28;20342;-57
2024/02/10 01:45:13;;;;;;;27.73;14.63;;;4.50;99.90;;;;;;5017653;28;20235;-58
2024/02/10 01:47:42;;;;;;;28.63;14.03;;;4.50;99.90;;;;;;5018821;28;20836;-55
2024/02/10 01:50:10;;;;;;;27.93;14.40;;;4.50;99.90;;;;;;5017097;28;20254;-57
2024/02/10 01:52:38;;;;;;;32.93;15.10;;;4.50;99.90;;;;;;4993015;28;20253;-56
2024/02/10 01:55:09;;;;;;;26.77;14.73;;;4.50;99.90;;;;;;5010409;28;20212;-58
2024/02/10 01:57:36;;;;;;;27.83;14.20;;;4.50;99.90;;;;;;5014478;28;20200;-56
2024/02/10 02:00:05;;;;;;;28.03;14.40;;;4.50;99.90;;;;;;5019702;28;20238;-55
2024/02/10 02:02:33;;;;;;;24.67;13.37;;;4.50;99.90;;;;;;5022094;28;20277;-57
2024/02/10 02:05:00;;;;;;;25.97;14.10;;;4.50;99.90;;;;;;5018945;28;20234;-59
2024/02/10 02:07:30;;;;;;;28.50;14.50;;;4.60;99.90;;;;;;4994353;28;20215;-59
2024/02/10 02:09:59;;;;;;;25.03;13.03;;;4.60;99.90;;;;;;5018906;28;20243;-58
2024/02/10 02:12:28;;;;;;;27.47;14.10;;;4.60;99.90;;;;;;5014542;28;20216;-57
2024/02/10 02:14:57;;;;;;;28.27;13.83;;;4.60;99.90;;;;;;5017513;28;20223;-57
2024/02/10 02:17:24;;;;;;;26.13;13.97;;;4.50;99.90;;;;;;5020409;28;20288;-56
2024/02/10 02:19:52;;;;;;;31.83;14.17;;;4.50;99.90;;;;;;5016550;28;20682;-55
2024/02/10 02:22:19;;;;;;;27.37;15.43;;;4.60;99.90;;;;;;5018369;28;20215;-57
2024/02/10 02:24:47;;;;;;;27.93;15.47;;;4.60;99.90;;;;;;4989161;28;20227;-57
2024/02/10 02:27:14;;;;;;;27.80;14.27;;;4.60;99.90;;;;;;5012497;28;20821;-58
2024/02/10 02:29:41;;;;;;;27.53;13.73;;;4.50;99.90;;;;;;5017894;28;20230;-54
2024/02/10 02:32:10;;;;;;;31.23;15.67;;;4.50;99.90;;;;;;5016843;28;20192;-57
2024/02/10 02:34:37;;;;;;;30.40;15.37;;;4.50;99.90;;;;;;5017785;28;20274;-58
2024/02/10 02:37:06;;;;;;;26.57;13.53;;;4.60;99.90;;;;;;5017156;28;20192;-58
2024/02/10 02:39:33;;;;;;;31.97;15.00;;;4.60;99.90;;;;;;4992991;28;22242;-59
2024/02/10 02:42:02;;;;;;;27.10;13.93;;;4.60;99.90;;;;;;5007286;28;20226;-58
2024/02/10 02:44:30;;;;;;;30.63;15.73;;;4.60;99.90;;;;;;5020408;28;20287;-55
2024/02/10 02:46:57;;;;;;;28.80;14.67;;;4.60;99.90;;;;;;5017927;28;20241;-59
2024/02/10 02:49:24;;;;;;;27.27;15.00;;;4.60;99.90;;;;;;5021685;28;20203;-57
2024/02/10 02:51:51;;;;;;;31.17;14.50;;;4.60;99.90;;;;;;5015930;28;20199;-55
2024/02/10 02:54:19;;;;;;;28.70;13.97;;;4.60;99.90;;;;;;4993105;28;20266;-57
2024/02/10 02:56:50;;;;;;;31.60;14.70;;;4.60;99.90;;;;;;5017215;28;20279;-58
2024/02/10 02:59:20;;;;;;;26.03;13.50;;;4.60;99.90;;;;;;5011145;28;20200;-54
2024/02/10 03:01:49;;;;;;;29.27;14.27;;;4.60;99.90;;;;;;5017276;28;20878;-55
2024/02/10 03:04:16;;;;;;;29.10;14.40;;;4.60;99.90;;;;;;5014760;28;20239;-57
2024/02/10 03:06:44;;;;;;;29.43;14.63;;;4.60;99.90;;;;;;5018246;28;20196;-56
2024/02/10 03:09:12;;;;;;;25.43;14.17;;;4.60;99.90;;;;;;5020638;28;20207;-57
2024/02/10 03:11:39;;;;;;;32.67;14.77;;;4.60;99.90;;;;;;4992089;28;20754;-54
2024/02/10 03:14:07;;;;;;;32.93;14.00;;;4.60;99.90;;;;;;5009886;28;20220;-57
2024/02/10 03:16:35;;;;;;;31.27;15.53;;;4.50;99.90;;;;;;5018907;28;20200;-56
2024/02/10 03:19:04;;;;;;;28.03;14.80;;;4.50;99.90;;;;;;5016276;28;20200;-57
2024/02/10 03:21:35;;;;;;;31.43;14.43;;;4.50;99.90;;;;;;5017266;28;20208;-55
2024/02/10 03:24:03;;;;;;;27.83;14.83;;;4.50;99.90;;;;;;5017209;28;20218;-58
2024/02/10 03:26:30;;;;;;;27.23;14.13;;;4.60;99.90;;;;;;4994262;28;20200;-57
2024/02/10 03:29:01;;;;;;;28.37;14.93;;;4.50;99.90;;;;;;5016082;28;20198;-56
2024/02/10 03:31:28;;;;;;;32.60;14.50;;;4.50;99.90;;;;;;5019931;28;20271;-57
2024/02/10 03:33:56;;;;;;;29.40;14.80;;;4.60;99.90;;;;;;5020938;28;20224;-58
2024/02/10 03:36:24;;;;;;;31.63;15.03;;;4.60;99.90;;;;;;5021585;28;20200;-55
2024/02/10 03:38:53;;;;;;;30.37;14.60;;;4.50;99.90;;;;;;5018401;28;20290;-57
2024/02/10 03:41:20;;;;;;;31.87;15.27;;;4.50;99.90;;;;;;4991522;28;20205;-55
2024/02/10 03:43:47;;;;;;;26.97;13.60;;;4.60;99.90;;;;;;5019090;28;20219;-57
2024/02/10 03:46:14;;;;;;;29.80;15.13;;;4.50;99.90;;;;;;5019621;28;20195;-58
2024/02/10 03:48:42;;;;;;;29.93;14.70;;;4.50;99.90;;;;;;5017560;28;20198;-55
2024/02/10 03:51:12;;;;;;;33.07;16.17;;;4.50;99.90;;;;;;5019578;28;20373;-56
2024/02/10 03:53:39;;;;;;;31.43;15.37;;;4.60;99.90;;;;;;5016154;28;20282;-55
2024/02/10 03:56:06;;;;;;;30.47;14.57;;;4.60;99.90;;;;;;4984937;28;20208;-57
2024/02/10 03:58:33;;;;;;;31.37;15.63;;;4.60;99.90;;;;;;5016687;28;20212;-54
2024/02/10 04:01:01;;;;;;;36.30;16.47;;;4.60;99.90;;;;;;5014875;28;20250;-55
2024/02/10 04:03:28;;;;;;;35.70;16.03;;;4.60;99.90;;;;;;5016681;28;20213;-54
2024/02/10 04:05:55;;;;;;;29.03;15.50;;;4.60;99.90;;;;;;5019211;28;20204;-55
2024/02/10 04:08:24;;;;;;;32.23;15.20;;;4.60;99.90;;;;;;5013324;28;20184;-55
2024/02/10 04:10:51;;;;;;;29.20;15.43;;;4.60;99.90;;;;;;5010660;28;20929;-55
2024/02/10 04:13:18;;;;;;;31.67;16.07;;;4.70;99.90;;;;;;4993429;28;20216;-57
2024/02/10 04:15:45;;;;;;;27.63;15.27;;;4.60;99.90;;;;;;5022525;28;20195;-58
2024/02/10 04:18:12;;;;;;;29.40;15.80;;;4.60;99.90;;;;;;5019779;28;20207;-57
2024/02/10 04:20:41;;;;;;;33.63;15.33;;;4.60;99.90;;;;;;5023793;28;20241;-56
2024/02/10 04:23:10;;;;;;;34.70;14.93;;;4.60;99.90;;;;;;5020171;28;20265;-56
2024/02/10 04:25:39;;;;;;;36.63;15.83;;;4.60;99.90;;;;;;5023894;28;20208;-57
2024/02/10 04:28:06;;;;;;;31.50;14.73;;;4.60;99.90;;;;;;4984809;28;20220;-56
2024/02/10 04:30:33;;;;;;;32.90;16.83;;;4.60;99.90;;;;;;5023583;28;20630;-58
2024/02/10 04:33:01;;;;;;;37.40;16.80;;;4.60;99.90;;;;;;5019352;28;20270;-57
2024/02/10 04:35:27;;;;;;;34.50;17.07;;;4.60;99.90;;;;;;5017914;28;20197;-57
2024/02/10 04:37:55;;;;;;;37.60;17.00;;;4.60;99.90;;;;;;5020088;28;20200;-57
2024/02/10 04:40:24;;;;;;;39.03;17.63;;;4.60;99.90;;;;;;5017605;28;20303;-58
2024/02/10 04:42:53;;;;;;;42.10;18.90;;;4.60;99.90;;;;;;4995069;28;20281;-57
2024/02/10 04:45:25;;;;;;;38.07;17.73;;;4.70;99.90;;;;;;5013774;28;20203;-58
2024/02/10 04:47:52;;;;;;;44.13;18.57;;;4.60;99.90;;;;;;5018157;28;20647;-55
2024/02/10 04:50:19;;;;;;;42.47;18.10;;;4.70;99.90;;;;;;5013252;28;20188;-57
2024/02/10 04:52:46;;;;;;;38.80;17.37;;;4.70;99.90;;;;;;5016678;28;20249;-58
2024/02/10 04:55:15;;;;;;;37.90;17.37;;;4.60;99.90;;;;;;5013153;28;20953;-55
2024/02/10 04:57:42;;;;;;;55.23;19.00;;;4.60;99.90;;;;;;4991488;28;20314;-58
2024/02/10 05:00:12;;;;;;;44.47;17.33;;;4.70;99.90;;;;;;5011827;28;20264;-57
2024/02/10 05:02:39;;;;;;;45.27;17.90;;;4.70;99.90;;;;;;5001727;28;20544;-57
2024/02/10 05:05:07;;;;;;;48.73;17.67;;;4.60;99.90;;;;;;5004852;28;20216;-58
2024/02/10 05:07:34;;;;;;;54.17;18.20;;;4.70;99.90;;;;;;5015861;28;20608;-56
2024/02/10 05:10:01;;;;;;;40.67;17.77;;;4.70;99.90;;;;;;5011052;28;20215;-57
2024/02/10 05:12:28;;;;;;;107.20;21.43;;;4.70;99.90;;;;;;5016412;28;20197;-57
2024/02/10 05:14:55;;;;;;;40.40;16.93;;;4.70;99.90;;;;;;4983183;28;20228;-57
2024/02/10 05:17:23;;;;;;;52.93;17.07;;;4.70;99.90;;;;;;5019664;28;20196;-57
2024/02/10 05:19:50;;;;;;;48.50;17.30;;;4.60;99.90;;;;;;5022359;28;20204;-57
2024/02/10 05:22:18;;;;;;;45.03;16.70;;;4.70;99.90;;;;;;5017325;28;20216;-56
2024/02/10 05:24:47;;;;;;;41.17;18.50;;;4.60;99.90;;;;;;5022538;28;20226;-56
2024/02/10 05:27:14;;;;;;;48.17;16.87;;;4.60;99.90;;;;;;5019658;28;20254;-56
2024/02/10 05:29:41;;;;;;;46.97;17.90;;;4.70;99.90;;;;;;4995945;28;20266;-56
2024/02/10 05:32:08;;;;;;;39.50;17.90;;;4.60;99.90;;;;;;5020746;28;20200;-56
2024/02/10 05:34:39;;;;;;;38.40;16.87;;;4.60;99.90;;;;;;5019762;28;20200;-57
2024/02/10 05:37:06;;;;;;;58.50;18.53;;;4.60;99.90;;;;;;5019849;28;20208;-55
2024/02/10 05:39:33;;;;;;;36.53;17.77;;;4.70;99.90;;;;;;5018679;28;20420;-55
2024/02/10 05:42:00;;;;;;;45.60;18.03;;;4.60;99.90;;;;;;5019791;28;20196;-56
2024/02/10 05:44:27;;;;;;;40.87;17.00;;;4.70;99.90;;;;;;4989767;28;22229;-59
2024/02/10 05:46:54;;;;;;;42.50;18.03;;;4.60;99.90;;;;;;5019987;28;20235;-55
2024/02/10 05:49:25;;;;;;;40.80;18.23;;;4.70;99.90;;;;;;5003672;28;21066;-58
2024/02/10 05:51:53;;;;;;;80.70;21.30;;;4.60;99.90;;;;;;5016723;28;20652;-56
2024/02/10 05:54:20;;;;;;;43.23;18.67;;;4.70;99.90;;;;;;5013155;28;20216;-56
2024/02/10 05:56:47;;;;;;;47.33;18.57;;;4.60;99.90;;;;;;5013789;28;20216;-56
2024/02/10 05:59:14;;;;;;;64.43;18.57;;;4.60;99.90;;;;;;5011125;28;20203;-54
2024/02/10 06:01:40;;;;;;;51.20;17.27;;;4.70;99.90;;;;;;4992996;28;20619;-55
2024/02/10 06:04:09;;;;;;;53.07;18.27;;;4.60;99.90;;;;;;5013027;28;20231;-55
2024/02/10 06:06:37;;;;;;;69.47;20.07;;;4.60;99.90;;;;;;5009539;28;20219;-58
2024/02/10 06:09:07;;;;;;;43.37;18.07;;;4.70;99.90;;;;;;5015912;28;20279;-58
2024/02/10 06:11:34;;;;;;;51.63;20.07;;;4.70;99.90;;;;;;5012371;28;20247;-59
2024/02/10 06:14:01;;;;;;;41.13;18.70;;;4.70;99.90;;;;;;5013703;28;20319;-55
2024/02/10 06:16:28;;;;;;;40.80;17.93;;;4.70;99.90;;;;;;4981386;28;20678;-57
2024/02/10 06:18:58;;;;;;;48.67;18.53;;;4.60;99.90;;;;;;5019812;28;21406;-58
2024/02/10 06:21:24;;;;;;;45.67;18.63;;;4.70;99.90;;;;;;5010892;28;20946;-55
2024/02/10 06:23:51;;;;;;;53.63;18.53;;;4.60;99.90;;;;;;5021143;28;20255;-57
2024/02/10 06:26:19;;;;;;;49.13;18.10;;;4.60;99.90;;;;;;5018306;28;20227;-55
2024/02/10 06:28:49;;;;;;;41.43;18.23;;;4.70;99.90;;;;;;5021371;28;20196;-58
2024/02/10 06:31:18;;;;;;;67.47;19.10;;;4.70;99.90;;;;;;5017346;28;20649;-55
2024/02/10 06:33:49;;;;;;;77.80;20.97;;;4.70;99.90;;;;;;4994864;28;20261;-57
2024/02/10 06:36:16;;;;;;;49.93;18.87;;;4.70;99.90;;;;;;5013041;28;20227;-56
2024/02/10 06:38:44;;;;;;;75.77;19.93;;;4.70;99.90;;;;;;5017090;28;20694;-56
2024/02/10 06:41:11;;;;;;;51.27;17.23;;;4.70;99.90;;;;;;5008894;28;20207;-55
2024/02/10 06:43:39;;;;;;;45.00;18.50;;;4.70;99.90;;;;;;5018789;28;20738;-57
2024/02/10 06:46:07;;;;;;;63.23;19.10;;;4.70;99.90;;;;;;5007991;28;21091;-59
2024/02/10 06:48:34;;;;;;;57.23;19.17;;;4.70;99.90;;;;;;4994433;28;20215;-57
2024/02/10 06:51:01;;;;;;;49.50;18.57;;;4.70;99.90;;;;;;5023317;28;20187;-56
2024/02/10 06:53:28;;;;;;;40.57;17.10;;;4.70;99.90;;;;;;5012486;28;20450;-55
2024/02/10 06:55:56;;;;;;;50.03;18.77;;;4.70;99.90;;;;;;5013324;28;21055;-56
2024/02/10 06:58:24;;;;;;;45.87;17.77;;;4.70;99.90;;;;;;5009267;28;20204;-57
2024/02/10 07:00:54;;;;;;;45.20;18.07;;;4.80;99.90;;;;;;5002740;28;20298;-57
2024/02/10 07:03:23;;;;;;;50.93;18.13;;;4.80;99.90;;;;;;5000463;28;20226;-56
2024/02/10 07:05:52;;;;;;;57.17;20.03;;;4.80;99.90;;;;;;5008670;28;20257;-56
2024/02/10 07:08:19;;;;;;;47.93;18.23;;;4.80;99.90;;;;;;5011014;28;20200;-55
2024/02/10 07:10:46;;;;;;;58.47;19.27;;;4.70;99.90;;;;;;5015193;28;20191;-52
2024/02/10 07:13:15;;;;;;;61.70;18.70;;;4.80;99.90;;;;;;5013984;28;20220;-55
2024/02/10 07:15:42;;;;;;;56.70;18.33;;;4.80;99.90;;;;;;5008039;28;20219;-51
2024/02/10 07:18:11;;;;;;;70.70;19.03;;;4.80;99.90;;;;;;5000185;28;20204;-57
2024/02/10 07:20:38;;;;;;;58.47;19.07;;;4.80;99.90;;;;;;4991585;28;20216;-54
2024/02/10 07:23:06;;;;;;;39.20;17.33;;;4.80;99.90;;;;;;5012217;28;20679;-57
2024/02/10 07:25:37;;;;;;;44.50;18.97;;;4.80;99.90;;;;;;5018155;28;20862;-52
2024/02/10 07:28:05;;;;;;;47.13;18.80;;;4.80;99.90;;;;;;5017231;28;20196;-57
2024/02/10 07:30:33;;;;;;;43.40;17.93;;;4.80;99.90;;;;;;5024720;28;20605;-52
2024/02/10 07:33:03;;;;;;;43.77;19.03;;;4.80;99.90;;;;;;5001946;28;20192;-56
2024/02/10 07:35:32;;;;;;;44.47;20.20;;;4.90;99.90;;;;;;4994775;28;20254;-52
2024/02/10 07:38:00;;;;;;;53.90;19.43;;;4.90;99.90;;;;;;5021741;28;20208;-56
2024/02/10 07:40:27;;;;;;;40.53;18.33;;;4.80;99.90;;;;;;5003333;28;20262;-49
2024/02/10 07:42:54;;;;;;;39.30;18.77;;;4.90;99.90;;;;;;5023483;28;20277;-56
2024/02/10 07:45:22;;;;;;;40.97;17.60;;;4.90;99.90;;;;;;5020774;28;20195;-50
2024/02/10 07:47:50;;;;;;;43.30;17.43;;;4.90;99.90;;;;;;5014213;28;20207;-51
2024/02/10 07:50:17;;;;;;;35.27;17.10;;;4.90;99.90;;;;;;4995547;28;20200;-48
2024/02/10 07:52:49;;;;;;;40.87;18.13;;;4.90;99.90;;;;;;5021679;28;20200;-48
2024/02/10 07:55:16;;;;;;;36.50;16.37;;;5.00;99.90;;;;;;5005124;28;20216;-50
2024/02/10 07:57:43;;;;;;;35.97;17.20;;;4.90;99.90;;;;;;5021067;28;20523;-51
2024/02/10 08:00:10;;;;;;;37.13;16.80;;;5.00;99.90;;;;;;5009512;28;20207;-48
2024/02/10 08:02:38;;;;;;;38.37;17.47;;;5.00;99.90;;;;;;5019784;28;20767;-48
2024/02/10 08:05:05;;;;;;;39.77;16.77;;;5.00;99.90;;;;;;4999775;28;20317;-51
2024/02/10 08:07:32;;;;;;;39.30;17.67;;;5.00;99.90;;;;;;4992589;28;20201;-55
2024/02/10 08:10:04;;;;;;;38.00;17.30;;;5.00;99.90;;;;;;5022388;28;20259;-49
2024/02/10 08:12:33;;;;;;;39.43;18.30;;;5.10;99.90;;;;;;5004654;28;20205;-55
2024/02/10 08:15:00;;;;;;;37.63;17.07;;;5.10;99.90;;;;;;5015839;28;20282;-52
2024/02/10 08:17:30;;;;;;;38.33;17.73;;;5.10;99.90;;;;;;5016174;28;20202;-54
2024/02/10 08:19:57;;;;;;;35.33;17.10;;;5.10;99.90;;;;;;5011245;28;20207;-58
2024/02/10 08:22:24;;;;;;;37.93;17.57;;;5.10;99.90;;;;;;4998286;28;20701;-47
2024/02/10 08:24:55;;;;;;;35.17;17.63;;;5.20;99.90;;;;;;5021545;28;20262;-56
2024/02/10 08:27:25;;;;;;;37.97;18.07;;;5.20;99.90;;;;;;5002502;28;20204;-55
2024/02/10 08:29:52;;;;;;;40.47;17.53;;;5.20;99.90;;;;;;5012657;28;20234;-47
2024/02/10 08:32:19;;;;;;;42.10;17.87;;;5.20;99.90;;;;;;5021907;28;20222;-57
2024/02/10 08:34:46;;;;;;;39.83;18.93;;;5.20;99.90;;;;;;5015056;28;21076;-50
2024/02/10 08:37:14;;;;;;;42.27;19.27;;;5.30;99.90;;;;;;4997344;28;20216;-53
2024/02/10 08:39:44;;;;;;;35.00;17.80;;;5.30;99.90;;;;;;5010924;28;20307;-47
2024/02/10 08:42:11;;;;;;;44.93;18.07;;;5.30;99.90;;;;;;5009491;28;20286;-51
2024/02/10 08:44:39;;;;;;;42.47;18.60;;;5.30;99.90;;;;;;5015305;28;20216;-47
2024/02/10 08:47:07;;;;;;;38.07;17.90;;;5.30;99.90;;;;;;5021976;28;20192;-50
2024/02/10 08:49:35;;;;;;;39.47;16.90;;;5.30;99.90;;;;;;5016304;28;20188;-53
2024/02/10 08:52:03;;;;;;;46.00;18.57;;;5.30;99.90;;;;;;4987258;28;20200;-49
2024/02/10 08:54:30;;;;;;;42.43;18.33;;;5.40;99.90;;;;;;5014634;28;20224;-57
2024/02/10 08:56:59;;;;;;;37.93;17.63;;;5.30;99.90;;;;;;5014092;28;20606;-51
2024/02/10 08:59:31;;;;;;;40.47;19.07;;;5.40;99.90;;;;;;4998633;28;20216;-57
2024/02/10 09:02:01;;;;;;;44.97;18.93;;;5.40;99.90;;;;;;5019751;28;20196;-49
2024/02/10 09:04:28;;;;;;;37.57;17.23;;;5.40;99.90;;;;;;5003423;28;20226;-57
2024/02/10 09:06:56;;;;;;;41.80;18.37;;;5.40;99.90;;;;;;5016366;28;20236;-49
2024/02/10 09:09:23;;;;;;;38.63;17.63;;;5.50;99.90;;;;;;4987421;28;20215;-56
2024/02/10 09:11:50;;;;;;;44.70;19.67;;;5.50;99.90;;;;;;5012250;28;20931;-50
2024/02/10 09:14:17;;;;;;;38.97;17.73;;;5.40;99.90;;;;;;5009514;28;20224;-55
2024/02/10 09:16:45;;;;;;;40.50;18.63;;;5.50;99.90;;;;;;5019335;28;20963;-47
2024/02/10 09:19:13;;;;;;;42.43;18.23;;;5.50;99.90;;;;;;5015495;28;20204;-56
2024/02/10 09:21:41;;;;;;;44.60;19.60;;;5.60;99.90;;;;;;5011058;28;21121;-49
2024/02/10 09:24:13;;;;;;;39.30;18.17;;;5.60;99.90;;;;;;4993100;28;20227;-49
2024/02/10 09:26:40;;;;;;;46.73;19.43;;;5.50;99.90;;;;;;5012949;28;20197;-49
2024/02/10 09:29:07;;;;;;;43.47;19.03;;;5.50;99.90;;;;;;5010889;28;20292;-52
2024/02/10 09:31:34;;;;;;;38.70;18.97;;;5.60;99.90;;;;;;5007635;28;20246;-49
2024/02/10 09:34:01;;;;;;;43.07;19.63;;;5.60;99.90;;;;;;5019120;28;20244;-51
2024/02/10 09:36:29;;;;;;;42.17;17.97;;;5.60;99.90;;;;;;5013137;28;20211;-57
2024/02/10 09:38:56;;;;;;;43.47;18.63;;;5.60;99.90;;;;;;5012948;28;20199;-51
2024/02/10 09:41:25;;;;;;;41.57;18.60;;;5.60;99.90;;;;;;4999120;28;20841;-50
2024/02/10 09:43:52;;;;;;;48.40;19.10;;;5.60;99.90;;;;;;5000779;28;20334;-49
2024/02/10 09:46:19;;;;;;;43.33;19.30;;;5.60;99.90;;;;;;4997168;28;20970;-47
2024/02/10 09:48:48;;;;;;;41.27;19.30;;;5.70;99.90;;;;;;5022588;28;20207;-50
2024/02/10 09:51:16;;;;;;;41.10;19.97;;;5.70;99.90;;;;;;5018401;28;20230;-55
2024/02/10 09:53:44;;;;;;;47.87;19.10;;;5.70;99.90;;;;;;5014645;28;20223;-51
2024/02/10 09:56:13;;;;;;;43.17;19.27;;;5.70;99.90;;;;;;4993703;28;20208;-56
2024/02/10 09:58:41;;;;;;;53.13;21.13;;;5.70;99.90;;;;;;5007839;28;20549;-50
2024/02/10 10:01:10;;;;;;;59.60;20.97;;;5.70;99.90;;;;;;5017503;28;20196;-57
2024/02/10 10:03:37;;;;;;;61.87;20.80;;;5.80;99.90;;;;;;5018783;28;20224;-50
2024/02/10 10:06:09;;;;;;;50.47;21.87;;;5.80;99.90;;;;;;5007357;28;20211;-55
2024/02/10 10:08:38;;;;;;;56.10;21.23;;;5.90;99.90;;;;;;5008011;28;20211;-53
2024/02/10 10:11:07;;;;;;;53.07;20.77;;;5.90;99.90;;;;;;4993092;28;20444;-52
2024/02/10 10:13:34;;;;;;;51.73;21.17;;;5.90;99.90;;;;;;5015315;28;20216;-57
2024/02/10 10:16:05;;;;;;;61.93;22.30;;;5.90;99.90;;;;;;5012918;28;20299;-53
2024/02/10 10:18:33;;;;;;;56.87;21.90;;;6.00;99.90;;;;;;5007642;28;20211;-56
2024/02/10 10:21:00;;;;;;;55.43;20.43;;;6.00;99.90;;;;;;5018749;28;20207;-47
2024/02/10 10:23:29;;;;;;;50.07;20.63;;;6.00;99.90;;;;;;5014091;28;20310;-53
2024/02/10 10:25:56;;;;;;;49.13;21.03;;;6.00;99.90;;;;;;5018965;28;20200;-49
2024/02/10 10:28:24;;;;;;;56.87;21.03;;;6.10;99.90;;;;;;4993696;28;20216;-48
2024/02/10 10:30:51;;;;;;;60.10;22.97;;;6.10;99.90;;;;;;5006234;28;20868;-51
2024/02/10 10:33:20;;;;;;;55.73;21.63;;;6.10;99.90;;;;;;5014054;28;20220;-51
2024/02/10 10:35:48;;;;;;;51.53;22.30;;;6.20;99.90;;;;;;5023657;28;20900;-48
2024/02/10 10:38:16;;;;;;;54.37;20.67;;;6.20;99.90;;;;;;5021647;28;20207;-47
2024/02/10 10:40:43;;;;;;;52.00;19.27;;;6.20;99.90;;;;;;5007218;28;20199;-55
2024/02/10 10:43:12;;;;;;;49.60;19.87;;;6.30;99.90;;;;;;4993568;28;20331;-52
2024/02/10 10:45:40;;;;;;;48.73;19.93;;;6.30;99.90;;;;;;5004843;28;20266;-57
2024/02/10 10:48:08;;;;;;;54.37;20.00;;;6.40;99.90;;;;;;5010077;28;20211;-49
2024/02/10 10:50:35;;;;;;;48.47;18.70;;;6.40;99.90;;;;;;5019806;28;20204;-56
2024/02/10 10:53:07;;;;;;;53.00;19.57;;;6.40;99.90;;;;;;5019914;28;20877;-50
2024/02/10 10:55:42;;;;;;;54.53;19.27;;;6.40;99.90;;;;;;5014531;28;20196;-56
2024/02/10 10:58:14;;;;;;;41.47;17.77;;;6.40;99.90;;;;;;4994368;28;20203;-49
2024/02/10 11:00:45;;;;;;;48.03;19.10;;;6.40;99.90;;;;;;5007681;28;20288;-57
2024/02/10 11:03:14;;;;;;;44.87;18.93;;;6.50;99.90;;;;;;5010889;28;20719;-49
2024/02/10 11:05:42;;;;;;;41.20;18.33;;;6.50;99.90;;;;;;5007669;28;20643;-50
2024/02/10 11:08:13;;;;;;;47.47;19.00;;;6.60;99.90;;;;;;5008235;28;20305;-51
2024/02/10 11:10:41;;;;;;;46.10;19.37;;;6.60;99.90;;;;;;5013711;28;20709;-56
2024/02/10 11:13:19;;;;;;;47.60;18.43;;;6.70;99.90;;;;;;4990778;28;20234;-52
2024/02/10 11:15:47;;;;;;;42.00;19.27;;;6.60;99.90;;;;;;5003129;28;20200;-56
2024/02/10 11:18:18;;;;;;;45.80;18.83;;;6.60;99.90;;;;;;5010853;28;20207;-48
2024/02/10 11:20:45;;;;;;;42.40;17.90;;;6.70;99.90;;;;;;5013851;28;20196;-57
2024/02/10 11:23:14;;;;;;;48.23;18.60;;;6.70;99.90;;;;;;5018926;28;20251;-52
2024/02/10 11:25:42;;;;;;;44.07;19.17;;;6.70;99.90;;;;;;5017338;28;20218;-56
2024/02/10 11:28:20;;;;;;;42.53;18.40;;;6.80;99.90;;;;;;4988345;28;20212;-47
2024/02/10 11:30:49;;;;;;;45.67;18.67;;;6.80;99.90;;;;;;5003769;28;20674;-57
2024/02/10 11:33:22;;;;;;;52.43;19.13;;;6.80;99.90;;;;;;5020239;28;20270;-51
2024/02/10 11:35:50;;;;;;;43.47;18.63;;;6.90;99.90;;;;;;5009711;28;20215;-58
2024/02/10 11:38:17;;;;;;;44.97;18.70;;;6.90;99.90;;;;;;5012396;28;20199;-51
2024/02/10 11:40:45;;;;;;;48.57;18.33;;;6.90;99.90;;;;;;5005161;28;20304;-48
2024/02/10 11:43:14;;;;;;;41.70;18.00;;;6.90;99.90;;;;;;5013076;28;20311;-52
2024/02/10 11:45:42;;;;;;;41.10;17.97;;;6.90;99.90;;;;;;4996248;28;20985;-53
2024/02/10 11:48:10;;;;;;;36.53;16.17;;;6.90;99.90;;;;;;5005311;28;20283;-50
2024/02/10 11:50:42;;;;;;;41.47;16.77;;;6.90;99.90;;;;;;5007598;28;20199;-51
2024/02/10 11:53:11;;;;;;;49.60;18.47;;;6.90;99.90;;;;;;5012723;28;20318;-56
2024/02/10 11:55:41;;;;;;;49.67;18.83;;;6.90;99.90;;;;;;5016849;28;20188;-51
2024/02/10 11:58:09;;;;;;;37.07;16.30;;;7.00;99.90;;;;;;5016735;28;20223;-51
2024/02/10 12:00:36;;;;;;;43.73;16.90;;;6.90;99.90;;;;;;4993561;28;20231;-53
2024/02/10 12:03:04;;;;;;;38.83;17.30;;;7.00;99.90;;;;;;5010304;28;20266;-53
2024/02/10 12:05:34;;;;;;;34.83;16.83;;;7.00;99.90;;;;;;5012011;28;20304;-50
2024/02/10 12:08:04;;;;;;;40.80;16.87;;;7.10;99.90;;;;;;5006223;28;20223;-50
2024/02/10 12:10:36;;;;;;;35.60;15.00;;;7.10;99.90;;;;;;5007387;28;20208;-56
2024/02/10 12:13:03;;;;;;;36.33;16.30;;;7.10;99.90;;;;;;5012441;28;21771;-50
2024/02/10 12:15:30;;;;;;;41.67;16.23;;;7.10;99.90;;;;;;4995285;28;20216;-56
2024/02/10 12:17:59;;;;;;;41.33;17.10;;;7.20;99.90;;;;;;5007537;28;20270;-50
2024/02/10 12:20:26;;;;;;;36.77;16.77;;;7.10;99.90;;;;;;5023939;28;20208;-56
2024/02/10 12:22:54;;;;;;;42.23;16.13;;;7.20;99.90;;;;;;5012721;28;20204;-54
2024/02/10 12:25:22;;;;;;;35.03;16.50;;;7.20;99.90;;;;;;5017911;28;20779;-51
2024/02/10 12:27:49;;;;;;;33.20;17.00;;;7.20;99.90;;;;;;5024434;28;20196;-53
2024/02/10 12:30:16;;;;;;;43.63;17.00;;;7.30;99.90;;;;;;4999638;28;20207;-56
2024/02/10 12:32:44;;;;;;;38.93;17.27;;;7.30;99.90;;;;;;5018401;28;20195;-52
2024/02/10 12:35:16;;;;;;;37.33;17.00;;;7.40;99.90;;;;;;5010624;28;20943;-57
2024/02/10 12:37:44;;;;;;;39.97;15.87;;;7.50;99.90;;;;;;5018873;28;20206;-52
2024/02/10 12:40:14;;;;;;;37.70;16.90;;;7.50;99.90;;;;;;5016974;28;20216;-57